Time;durP1;ratioP1;P1;durP2;ratioP2;P2;SDS_P1;SDS_P2;PMS_P1;PMS_P2;Temp;Humidity;BMP_temperature;BMP_pressure;BME280_temperature;BME280_humidity;BME280_pressure;Samples;Min_cycle;Max_cycle;Signal;HPM_P1;HPM_P2
2024/02/09 00:01:22;;;;;;;;;;;23.00;39.40;;;;;;5058611;28;20313;-58
2024/02/09 00:03:49;;;;;;;;;;;23.00;39.40;;;;;;5076350;28;19963;-58
2024/02/09 00:06:16;;;;;;;;;;;23.00;39.40;;;;;;5076305;28;19924;-57
2024/02/09 00:08:43;;;;;;;;;;;23.00;39.40;;;;;;5076733;28;19928;-59
2024/02/09 00:11:11;;;;;;;;;;;23.00;39.30;;;;;;5076392;28;19928;-57
2024/02/09 00:13:42;;;;;;;;;;;23.00;39.30;;;;;;5076723;28;20288;-58
2024/02/09 00:16:10;;;;;;;;;;;23.00;39.30;;;;;;5075923;28;20023;-57
2024/02/09 00:18:39;;;;;;;;;;;23.00;39.30;;;;;;5075748;28;19974;-57
2024/02/09 00:21:10;;;;;;;;;;;23.00;39.30;;;;;;5075916;28;19924;-57
2024/02/09 00:23:38;;;;;;;;;;;23.00;39.30;;;;;;5076306;28;19931;-57
2024/02/09 00:26:06;;;;;;;;;;;23.00;39.30;;;;;;5076205;28;19998;-57
2024/02/09 00:28:33;;;;;;;;;;;23.00;39.30;;;;;;5075513;28;19931;-57
2024/02/09 00:31:01;;;;;;;;;;;23.00;39.30;;;;;;5075783;28;20378;-57
2024/02/09 00:33:29;;;;;;;;;;;23.00;39.30;;;;;;5076347;28;20362;-57
2024/02/09 00:35:56;;;;;;;;;;;23.00;39.30;;;;;;5075902;28;19931;-57
2024/02/09 00:38:23;;;;;;;;;;;23.00;39.30;;;;;;5075389;28;19930;-57
2024/02/09 00:40:51;;;;;;;;;;;23.00;39.30;;;;;;5075629;28;19931;-57
2024/02/09 00:43:22;;;;;;;;;;;23.00;39.30;;;;;;5075661;28;19925;-57
2024/02/09 00:45:51;;;;;;;;;;;23.00;39.30;;;;;;5075791;28;19968;-57
2024/02/09 00:48:18;;;;;;;;;;;23.00;39.30;;;;;;5075689;28;19924;-57
2024/02/09 00:50:45;;;;;;;;;;;23.00;39.30;;;;;;5075557;28;19998;-57
2024/02/09 00:53:12;;;;;;;;;;;23.00;39.30;;;;;;5075428;28;19924;-57
2024/02/09 00:55:39;;;;;;;;;;;23.00;39.30;;;;;;5075187;28;19954;-57
2024/02/09 00:58:06;;;;;;;;;;;23.00;39.30;;;;;;5075280;28;19924;-57
2024/02/09 01:00:33;;;;;;;;;;;22.90;39.30;;;;;;5074994;28;19970;-56
2024/02/09 01:03:03;;;;;;;;;;;22.90;39.30;;;;;;5075396;28;20412;-58
2024/02/09 01:05:32;;;;;;;;;;;22.90;39.30;;;;;;5075417;28;19970;-58
2024/02/09 01:08:01;;;;;;;;;;;22.90;39.30;;;;;;5057449;28;19935;-57
2024/02/09 01:10:28;;;;;;;;;;;22.90;39.30;;;;;;5074990;28;19924;-58
2024/02/09 02:46:53;;;;;;;;;;;22.90;39.20;;;;;;5073393;28;19924;-57
2024/02/09 03:06:01;;;;;;;;;;;22.80;39.30;;;;;;5072719;28;19924;-57
2024/02/09 03:08:28;;;;;;;;;;;22.80;39.20;;;;;;5072960;28;19931;-58
2024/02/09 03:11:14;;;;;;;;;;;22.80;39.20;;;;;;5073179;28;19970;-57
2024/02/09 03:13:42;;;;;;;;;;;22.80;39.80;;;;;;5073549;28;19932;-57
2024/02/09 03:16:09;;;;;;;;;;;22.80;39.30;;;;;;5072889;28;19931;-57
2024/02/09 03:18:36;;;;;;;;;;;22.80;39.20;;;;;;5072601;28;19929;-57
2024/02/09 03:21:03;;;;;;;;;;;22.80;39.30;;;;;;5072057;28;20459;-57
2024/02/09 03:23:30;;;;;;;;;;;22.80;39.30;;;;;;5072649;28;19925;-58
2024/02/09 03:25:57;;;;;;;;;;;22.80;39.30;;;;;;5073143;28;19924;-58
2024/02/09 03:28:24;;;;;;;;;;;22.80;39.30;;;;;;5073048;28;20366;-58
2024/02/09 03:30:51;;;;;;;;;;;22.80;39.20;;;;;;5073019;28;19931;-57
2024/02/09 03:33:18;;;;;;;;;;;22.80;39.20;;;;;;5072881;28;20343;-57
2024/02/09 03:35:45;;;;;;;;;;;22.80;39.30;;;;;;5072983;28;19978;-57
2024/02/09 03:38:13;;;;;;;;;;;22.80;39.30;;;;;;5054661;28;19994;-58
2024/02/09 03:40:41;;;;;;;;;;;22.80;39.30;;;;;;5072577;28;19990;-57
2024/02/09 03:43:08;;;;;;;;;;;22.80;39.30;;;;;;5073187;28;19924;-57
2024/02/09 03:45:37;;;;;;;;;;;22.80;39.30;;;;;;5072915;28;19928;-57
2024/02/09 03:48:04;;;;;;;;;;;22.80;39.30;;;;;;5072674;28;19932;-57
2024/02/09 03:50:34;;;;;;;;;;;22.90;39.30;;;;;;5073009;28;19931;-57
2024/02/09 03:53:02;;;;;;;;;;;22.80;39.20;;;;;;5073050;28;20041;-57
2024/02/09 03:55:29;;;;;;;;;;;22.80;39.20;;;;;;5072805;28;19978;-57
2024/02/09 03:57:57;;;;;;;;;;;22.80;39.20;;;;;;5072640;28;19928;-57
2024/02/09 04:00:24;;;;;;;;;;;22.80;39.20;;;;;;5054982;28;19958;-57
2024/02/09 04:02:51;;;;;;;;;;;22.80;39.20;;;;;;5072704;28;19978;-57
2024/02/09 04:05:18;;;;;;;;;;;22.80;39.20;;;;;;5072797;28;19932;-58
2024/02/09 04:07:45;;;;;;;;;;;22.80;39.20;;;;;;5072724;28;20413;-57
2024/02/09 04:10:12;;;;;;;;;;;22.80;39.20;;;;;;5073057;28;20027;-57
2024/02/09 04:12:59;;;;;;;;;;;22.80;39.20;;;;;;5072622;28;19925;-58
2024/02/09 04:15:26;;;;;;;;;;;22.80;39.20;;;;;;5072717;28;19925;-57
2024/02/09 04:17:53;;;;;;;;;;;22.80;39.20;;;;;;5072219;28;19931;-57
2024/02/09 04:20:20;;;;;;;;;;;22.80;39.20;;;;;;5072539;28;20581;-57
2024/02/09 04:22:50;;;;;;;;;;;22.80;39.20;;;;;;5072775;28;20015;-57
2024/02/09 04:25:18;;;;;;;;;;;22.80;39.20;;;;;;5072740;28;19924;-57
2024/02/09 04:27:45;;;;;;;;;;;22.80;39.20;;;;;;5071849;28;20320;-57
2024/02/09 04:30:15;;;;;;;;;;;22.80;39.20;;;;;;5071707;28;20019;-57
2024/02/09 04:32:42;;;;;;;;;;;22.80;39.20;;;;;;5075761;28;19982;-57
2024/02/09 04:35:08;;;;;;;;;;;22.80;39.20;;;;;;5076062;28;20259;-57
2024/02/09 04:37:36;;;;;;;;;;;22.80;39.20;;;;;;5075753;28;19928;-57
2024/02/09 04:40:03;;;;;;;;;;;22.80;39.20;;;;;;5075762;28;20382;-57
2024/02/09 04:42:31;;;;;;;;;;;22.80;39.00;;;;;;5057735;28;19924;-57
2024/02/09 04:44:58;;;;;;;;;;;22.80;38.80;;;;;;5075542;28;20294;-57
2024/02/09 04:47:24;;;;;;;;;;;22.80;38.60;;;;;;5075106;28;20374;-56
2024/02/09 04:49:52;;;;;;;;;;;22.80;38.50;;;;;;5075742;28;19929;-57
2024/02/09 04:52:19;;;;;;;;;;;22.80;38.30;;;;;;5075283;28;19931;-57
2024/02/09 04:54:46;;;;;;;;;;;22.80;38.30;;;;;;5075182;28;20333;-57
2024/02/09 04:57:13;;;;;;;;;;;22.80;38.20;;;;;;5073149;28;19987;-57
2024/02/09 04:59:40;;;;;;;;;;;22.80;38.10;;;;;;5075178;28;19978;-57
2024/02/09 05:02:10;;;;;;;;;;;22.80;38.00;;;;;;5075364;28;20031;-57
2024/02/09 05:04:37;;;;;;;;;;;22.80;37.90;;;;;;5075496;28;19988;-57
2024/02/09 05:07:05;;;;;;;;;;;22.80;37.90;;;;;;5075138;28;19925;-57
2024/02/09 05:09:32;;;;;;;;;;;22.80;37.90;;;;;;5075652;28;19925;-57
2024/02/09 05:11:59;;;;;;;;;;;22.80;37.80;;;;;;5075491;28;20332;-57
2024/02/09 05:14:26;;;;;;;;;;;22.80;37.70;;;;;;5075357;28;19928;-57
2024/02/09 05:16:53;;;;;;;;;;;22.80;37.70;;;;;;5074538;28;19924;-57
2024/02/09 05:19:20;;;;;;;;;;;22.80;37.60;;;;;;5074808;28;19931;-57
2024/02/09 05:21:48;;;;;;;;;;;22.80;37.60;;;;;;5075135;28;19924;-57
2024/02/09 05:24:15;;;;;;;;;;;22.80;37.60;;;;;;5075327;28;19932;-57
2024/02/09 05:26:41;;;;;;;;;;;22.80;37.50;;;;;;5074599;28;20382;-57
2024/02/09 05:29:09;;;;;;;;;;;22.80;37.50;;;;;;5074992;28;19971;-57
2024/02/09 05:31:41;;;;;;;;;;;22.90;37.50;;;;;;5075126;28;20050;-57
2024/02/09 05:34:08;;;;;;;;;;;22.90;37.50;;;;;;5074972;28;19924;-58
2024/02/09 05:36:36;;;;;;;;;;;22.90;37.50;;;;;;5074745;28;20264;-57
2024/02/09 05:39:03;;;;;;;;;;;22.90;38.00;;;;;;5073711;28;19925;-57
2024/02/09 05:41:30;;;;;;;;;;;22.90;37.40;;;;;;5072661;28;19925;-57
2024/02/09 05:43:58;;;;;;;;;;;22.90;37.30;;;;;;5072765;28;20020;-57
2024/02/09 05:46:25;;;;;;;;;;;22.90;37.30;;;;;;5070453;28;19951;-58
2024/02/09 05:48:53;;;;;;;;;;;22.80;37.30;;;;;;5073744;28;20332;-57
2024/02/09 05:51:21;;;;;;;;;;;22.90;37.20;;;;;;5074074;28;19924;-57
2024/02/09 05:53:48;;;;;;;;;;;22.90;37.20;;;;;;5074571;28;19928;-57
2024/02/09 05:56:16;;;;;;;;;;;22.90;37.20;;;;;;5073230;28;19924;-57
2024/02/09 05:58:43;;;;;;;;;;;22.90;37.20;;;;;;5066354;28;19959;-57
2024/02/09 06:01:10;;;;;;;;;;;22.90;37.20;;;;;;5073773;28;20379;-57
2024/02/09 06:03:38;;;;;;;;;;;22.90;37.20;;;;;;5055562;28;19935;-57
2024/02/09 06:06:05;;;;;;;;;;;22.90;37.20;;;;;;5073362;28;19978;-58
2024/02/09 06:08:33;;;;;;;;;;;22.90;37.20;;;;;;5073081;28;19970;-57
2024/02/09 06:11:03;;;;;;;;;;;22.90;37.20;;;;;;5072366;28;19954;-58
2024/02/09 06:13:33;;;;;;;;;;;22.90;37.40;;;;;;5071182;28;20027;-57
2024/02/09 06:16:00;;;;;;;;;;;22.90;37.20;;;;;;5072001;28;19924;-59
2024/02/09 06:18:28;;;;;;;;;;;22.90;37.20;;;;;;5071771;28;20432;-58
2024/02/09 06:20:58;;;;;;;;;;;22.90;37.10;;;;;;5072693;28;19971;-58
2024/02/09 06:23:25;;;;;;;;;;;23.00;37.20;;;;;;5071858;28;20027;-61
2024/02/09 06:25:52;;;;;;;;;;;23.00;37.30;;;;;;5054163;28;20015;-62
2024/02/09 06:28:19;;;;;;;;;;;23.00;37.40;;;;;;5070192;28;19925;-58
2024/02/09 06:30:47;;;;;;;;;;;23.00;37.60;;;;;;5068805;28;20028;-58
2024/02/09 06:33:15;;;;;;;;;;;23.00;37.40;;;;;;5069074;28;19931;-63
2024/02/09 06:35:43;;;;;;;;;;;23.00;37.40;;;;;;5064638;28;19925;-64
2024/02/09 06:38:11;;;;;;;;;;;23.10;37.40;;;;;;5063480;28;19925;-62
2024/02/09 06:40:38;;;;;;;;;;;23.10;37.40;;;;;;5051944;28;19932;-58
2024/02/09 06:43:06;;;;;;;;;;;23.10;37.40;;;;;;5049680;28;19943;-62
2024/02/09 06:45:36;;;;;;;;;;;23.10;37.40;;;;;;5060646;28;19940;-60
2024/02/09 06:48:03;;;;;;;;;;;23.10;37.60;;;;;;5063977;28;19932;-61
2024/02/09 06:50:30;;;;;;;;;;;23.20;37.80;;;;;;5066701;28;19928;-62
2024/02/09 06:52:58;;;;;;;;;;;23.20;37.90;;;;;;5061902;28;19943;-61
2024/02/09 06:55:25;;;;;;;;;;;23.30;37.90;;;;;;5064447;28;19964;-58
2024/02/09 06:57:52;;;;;;;;;;;23.30;37.90;;;;;;5058602;28;20398;-58
2024/02/09 07:00:20;;;;;;;;;;;23.30;37.80;;;;;;5061385;28;19982;-56
2024/02/09 07:02:47;;;;;;;;;;;23.40;37.60;;;;;;5060550;28;19970;-59
2024/02/09 07:05:15;;;;;;;;;;;23.40;37.40;;;;;;5061019;28;20290;-57
2024/02/09 07:07:43;;;;;;;;;;;23.40;37.20;;;;;;5061517;28;20013;-57
2024/02/09 07:10:11;;;;;;;;;;;23.40;37.10;;;;;;5056521;28;20024;-57
2024/02/09 07:12:41;;;;;;;;;;;23.40;37.00;;;;;;5060005;28;19933;-56
2024/02/09 07:15:09;;;;;;;;;;;23.40;37.10;;;;;;5057145;28;20458;-59
2024/02/09 07:17:36;;;;;;;;;;;23.50;37.20;;;;;;5060474;28;20071;-59
2024/02/09 07:20:03;;;;;;;;;;;23.50;37.40;;;;;;5060521;28;20471;-59
2024/02/09 07:22:31;;;;;;;;;;;23.50;37.50;;;;;;5042722;28;19936;-59
2024/02/09 07:24:58;;;;;;;;;;;23.60;37.60;;;;;;5061546;28;19933;-59
2024/02/09 07:27:26;;;;;;;;;;;23.70;37.60;;;;;;5059816;28;20294;-60
2024/02/09 07:29:53;;;;;;;;;;;23.70;37.60;;;;;;5041824;28;19932;-59
2024/02/09 07:32:20;;;;;;;;;;;23.70;37.60;;;;;;5061177;28;19925;-60
2024/02/09 07:34:48;;;;;;;;;;;23.80;37.60;;;;;;5044817;28;19933;-60
2024/02/09 07:37:15;;;;;;;;;;;23.90;37.60;;;;;;5064539;28;19925;-59
2024/02/09 07:39:42;;;;;;;;;;;23.90;38.00;;;;;;5058253;28;19929;-60
2024/02/09 07:42:09;;;;;;;;;;;24.00;37.80;;;;;;5058612;28;19924;-61
2024/02/09 07:44:36;;;;;;;;;;;24.10;37.80;;;;;;5054762;28;19924;-60
2024/02/09 07:47:06;;;;;;;;;;;24.10;37.50;;;;;;5058310;28;19932;-61
2024/02/09 07:49:34;;;;;;;;;;;24.10;37.30;;;;;;5050106;28;19936;-61
2024/02/09 07:52:01;;;;;;;;;;;24.20;37.00;;;;;;5040278;28;19947;-59
2024/02/09 07:54:31;;;;;;;;;;;24.30;37.00;;;;;;5058600;28;19932;-60
2024/02/09 07:56:59;;;;;;;;;;;24.40;36.80;;;;;;5059843;28;19932;-59
2024/02/09 07:59:26;;;;;;;;;;;24.40;36.70;;;;;;5055212;28;19939;-62
2024/02/09 08:01:53;;;;;;;;;;;24.50;36.60;;;;;;5058453;28;19933;-58
2024/02/09 08:04:20;;;;;;;;;;;24.50;36.50;;;;;;5057909;28;19932;-59
2024/02/09 08:06:50;;;;;;;;;;;24.60;36.50;;;;;;5064684;28;19929;-59
2024/02/09 08:09:17;;;;;;;;;;;24.60;36.20;;;;;;5068366;28;19956;-58
2024/02/09 08:11:47;;;;;;;;;;;24.70;36.10;;;;;;5058147;28;20039;-59
2024/02/09 08:14:14;;;;;;;;;;;24.70;36.20;;;;;;5063937;28;19930;-58
2024/02/09 08:16:41;;;;;;;;;;;24.80;36.20;;;;;;5064700;28;19971;-59
2024/02/09 08:19:09;;;;;;;;;;;24.80;36.10;;;;;;5068074;28;20047;-59
2024/02/09 08:21:39;;;;;;;;;;;24.90;36.10;;;;;;5066461;28;20293;-63
2024/02/09 08:24:06;;;;;;;;;;;24.90;36.60;;;;;;5064099;28;19929;-59
2024/02/09 08:26:39;;;;;;;;;;;24.90;36.20;;;;;;5055350;28;20960;-59
2024/02/09 08:29:19;;;;;;;;;;;24.90;36.10;;;;;;5042675;28;21619;-59
2024/02/09 08:31:46;;;;;;;;;;;25.00;36.10;;;;;;5042284;28;21428;-60
2024/02/09 08:34:13;;;;;;;;;;;25.00;36.00;;;;;;5040854;28;19933;-60
2024/02/09 08:36:40;;;;;;;;;;;25.10;36.00;;;;;;5043732;28;19939;-61
2024/02/09 08:39:07;;;;;;;;;;;25.00;35.80;;;;;;5042020;28;19955;-59
2024/02/09 08:41:35;;;;;;;;;;;25.10;35.90;;;;;;5037828;28;19933;-60
2024/02/09 08:44:02;;;;;;;;;;;25.10;35.70;;;;;;5038647;28;19932;-60
2024/02/09 08:46:29;;;;;;;;;;;25.10;35.70;;;;;;5038469;28;20396;-59
2024/02/09 08:48:56;;;;;;;;;;;25.10;35.70;;;;;;5039468;28;19932;-61
2024/02/09 08:51:24;;;;;;;;;;;25.10;35.80;;;;;;5038154;28;20404;-60
2024/02/09 08:53:51;;;;;;;;;;;25.20;35.90;;;;;;5037521;28;20453;-60
2024/02/09 08:56:18;;;;;;;;;;;25.20;35.90;;;;;;5039893;28;19932;-60
2024/02/09 08:58:47;;;;;;;;;;;25.20;35.80;;;;;;5039645;28;19939;-60
2024/02/09 09:01:14;;;;;;;;;;;25.30;35.80;;;;;;5039475;28;20659;-60
2024/02/09 09:03:42;;;;;;;;;;;25.30;35.50;;;;;;5041937;28;19998;-60
2024/02/09 09:06:10;;;;;;;;;;;25.30;35.40;;;;;;5044229;28;20011;-59
2024/02/09 09:08:38;;;;;;;;;;;25.30;35.20;;;;;;5048713;28;19928;-60
2024/02/09 09:11:05;;;;;;;;;;;25.40;35.20;;;;;;5065932;28;19943;-60
2024/02/09 09:13:32;;;;;;;;;;;25.40;35.00;;;;;;5063352;28;19954;-59
2024/02/09 09:15:59;;;;;;;;;;;25.40;35.00;;;;;;5060754;28;19933;-60
2024/02/09 09:18:28;;;;;;;;;;;25.40;35.00;;;;;;5062219;28;19924;-54
2024/02/09 09:20:55;;;;;;;;;;;25.40;34.90;;;;;;5063799;28;19924;-60
2024/02/09 09:23:22;;;;;;;;;;;25.40;35.00;;;;;;5061326;28;19925;-60
2024/02/09 09:25:50;;;;;;;;;;;25.40;35.00;;;;;;5064578;28;20201;-60
2024/02/09 09:28:21;;;;;;;;;;;25.40;35.00;;;;;;5066082;28;19936;-61
2024/02/09 09:30:48;;;;;;;;;;;25.40;34.50;;;;;;5063734;28;19928;-60
2024/02/09 09:33:15;;;;;;;;;;;25.50;34.60;;;;;;5065820;28;19948;-60
2024/02/09 09:35:42;;;;;;;;;;;25.50;34.60;;;;;;5061758;28;19939;-55
2024/02/09 09:38:10;;;;;;;;;;;25.50;34.80;;;;;;5061537;28;19928;-58
2024/02/09 09:40:39;;;;;;;;;;;25.50;35.10;;;;;;5031783;28;20386;-58
2024/02/09 09:43:08;;;;;;;;;;;25.50;34.90;;;;;;5065452;28;20301;-59
2024/02/09 09:45:35;;;;;;;;;;;25.50;34.90;;;;;;5059460;28;19979;-59
2024/02/09 09:48:04;;;;;;;;;;;25.60;35.00;;;;;;5065533;28;19960;-58
2024/02/09 09:50:32;;;;;;;;;;;25.60;34.90;;;;;;5064498;28;19932;-57
2024/02/09 09:53:02;;;;;;;;;;;25.60;34.70;;;;;;5061056;28;20325;-58
2024/02/09 09:55:30;;;;;;;;;;;25.60;34.70;;;;;;5058411;28;20397;-56
2024/02/09 09:57:57;;;;;;;;;;;25.60;34.50;;;;;;5051407;28;20366;-57
2024/02/09 10:00:24;;;;;;;;;;;25.60;34.50;;;;;;5054613;28;19928;-59
2024/02/09 10:02:52;;;;;;;;;;;25.60;34.60;;;;;;5059428;28;20407;-59
2024/02/09 10:05:19;;;;;;;;;;;25.60;34.90;;;;;;5062952;28;20454;-59
2024/02/09 10:07:46;;;;;;;;;;;25.70;35.20;;;;;;5065303;28;19979;-55
2024/02/09 10:10:15;;;;;;;;;;;25.70;34.50;;;;;;5052057;28;19928;-59
2024/02/09 10:12:42;;;;;;;;;;;25.70;34.70;;;;;;5059004;28;19986;-60
2024/02/09 10:15:09;;;;;;;;;;;25.70;34.70;;;;;;5062449;28;20035;-60
2024/02/09 10:17:39;;;;;;;;;;;25.70;34.60;;;;;;5061254;28;19933;-60
2024/02/09 10:20:09;;;;;;;;;;;25.70;34.40;;;;;;5064913;28;19924;-59
2024/02/09 10:22:37;;;;;;;;;;;25.80;34.70;;;;;;5046002;28;19932;-60
2024/02/09 10:25:04;;;;;;;;;;;25.80;34.70;;;;;;5062856;28;19925;-60
2024/02/09 10:27:32;;;;;;;;;;;25.80;34.90;;;;;;5060753;28;20290;-60
2024/02/09 10:29:59;;;;;;;;;;;25.80;34.70;;;;;;5062563;28;19977;-59
2024/02/09 10:32:26;;;;;;;;;;;25.80;34.60;;;;;;5062268;28;19979;-59
2024/02/09 10:34:54;;;;;;;;;;;25.90;34.80;;;;;;5056629;28;20405;-63
2024/02/09 10:37:24;;;;;;;;;;;25.90;34.80;;;;;;5056683;28;19986;-59
2024/02/09 10:39:59;;;;;;;;;;;25.90;34.90;;;;;;5060671;28;19928;-61
2024/02/09 10:42:28;;;;;;;;;;;25.90;34.90;;;;;;5056797;28;20043;-56
2024/02/09 10:44:55;;;;;;;;;;;25.90;34.80;;;;;;5057712;28;19931;-59
2024/02/09 10:47:38;;;;;;;;;;;26.00;34.60;;;;;;5059808;28;19932;-57
2024/02/09 10:50:06;;;;;;;;;;;25.90;34.20;;;;;;5068390;28;20011;-60
2024/02/09 10:52:35;;;;;;;;;;;25.90;34.10;;;;;;5064977;28;20408;-60
2024/02/09 10:55:05;;;;;;;;;;;26.00;34.30;;;;;;5058304;28;19924;-60
2024/02/09 10:57:36;;;;;;;;;;;25.90;33.90;;;;;;5042303;28;20690;-59
2024/02/09 11:00:03;;;;;;;;;;;26.00;33.90;;;;;;5065320;28;19924;-60
2024/02/09 11:02:30;;;;;;;;;;;26.00;33.80;;;;;;5065027;28;19929;-60
2024/02/09 11:04:58;;;;;;;;;;;26.00;33.80;;;;;;5062575;28;19971;-60
2024/02/09 11:07:25;;;;;;;;;;;26.00;33.80;;;;;;5059268;28;20362;-60
2024/02/09 11:09:53;;;;;;;;;;;26.00;33.80;;;;;;5061847;28;20340;-58
2024/02/09 11:12:20;;;;;;;;;;;26.00;33.80;;;;;;5064959;28;20294;-61
2024/02/09 11:14:47;;;;;;;;;;;25.90;33.70;;;;;;5060767;28;19924;-59
2024/02/09 11:17:20;;;;;;;;;;;25.90;33.70;;;;;;5065223;28;20328;-59
2024/02/09 11:19:48;;;;;;;;;;;25.90;33.70;;;;;;5062017;28;19968;-59
2024/02/09 11:22:17;;;;;;;;;;;25.80;33.90;;;;;;5043824;28;20397;-57
2024/02/09 11:24:46;;;;;;;;;;;25.80;33.80;;;;;;5054942;28;20389;-57
2024/02/09 11:27:14;;;;;;;;;;;25.80;33.90;;;;;;5054392;28;19929;-59
2024/02/09 11:29:41;;;;;;;;;;;25.80;33.90;;;;;;5062976;28;19997;-59
2024/02/09 11:32:07;;;;;;;;;;;25.80;34.10;;;;;;5059322;28;19967;-59
2024/02/09 11:34:35;;;;;;;;;;;25.80;34.20;;;;;;5057971;28;20016;-59
2024/02/09 11:37:03;;;;;;;;;;;25.80;34.20;;;;;;5065525;28;19932;-59
2024/02/09 11:39:33;;;;;;;;;;;25.80;34.30;;;;;;5059936;28;20254;-60
2024/02/09 11:42:05;;;;;;;;;;;25.80;34.40;;;;;;5067170;28;19935;-61
2024/02/09 11:44:33;;;;;;;;;;;25.80;34.40;;;;;;5063507;28;19977;-61
2024/02/09 11:47:03;;;;;;;;;;;25.80;34.00;;;;;;5070954;28;19933;-62
2024/02/09 11:49:30;;;;;;;;;;;25.70;34.00;;;;;;5071472;28;20385;-63
2024/02/09 11:52:02;;;;;;;;;;;25.70;34.20;;;;;;5066989;28;19925;-59
2024/02/09 11:54:29;;;;;;;;;;;25.70;34.40;;;;;;5064854;28;20042;-59
2024/02/09 11:56:57;;;;;;;;;;;25.70;34.60;;;;;;5040298;28;19940;-60
2024/02/09 11:59:25;;;;;;;;;;;25.70;34.70;;;;;;5060222;28;19985;-59
2024/02/09 12:01:55;;;;;;;;;;;25.70;34.80;;;;;;5050963;28;20400;-59
2024/02/09 12:04:23;;;;;;;;;;;25.70;34.80;;;;;;5044673;28;20373;-59
2024/02/09 12:06:52;;;;;;;;;;;25.80;34.90;;;;;;5069881;28;19928;-59
2024/02/09 12:09:19;;;;;;;;;;;25.80;35.10;;;;;;5070067;28;20399;-59
2024/02/09 12:11:46;;;;;;;;;;;25.80;35.00;;;;;;5067663;28;19931;-59
2024/02/09 12:14:14;;;;;;;;;;;25.80;34.70;;;;;;5067293;28;19931;-59
2024/02/09 12:16:41;;;;;;;;;;;25.80;34.70;;;;;;5068335;28;19972;-59
2024/02/09 12:19:08;;;;;;;;;;;25.80;34.80;;;;;;5059817;28;19952;-58
2024/02/09 12:21:35;;;;;;;;;;;25.80;35.40;;;;;;5066371;28;19986;-60
2024/02/09 12:24:04;;;;;;;;;;;25.80;34.80;;;;;;5067617;28;19931;-60
2024/02/09 12:26:32;;;;;;;;;;;25.80;34.80;;;;;;5061527;28;19932;-60
2024/02/09 12:29:09;;;;;;;;;;;25.80;34.90;;;;;;5058076;28;19955;-59
2024/02/09 12:31:36;;;;;;;;;;;25.80;34.80;;;;;;5059301;28;19933;-59
2024/02/09 12:34:03;;;;;;;;;;;25.80;34.90;;;;;;5060008;28;19925;-60
2024/02/09 12:36:31;;;;;;;;;;;25.80;34.80;;;;;;5041912;28;19932;-60
2024/02/09 12:39:06;;;;;;;;;;;25.80;34.70;;;;;;5059127;28;20008;-60
2024/02/09 12:41:36;;;;;;;;;;;25.80;34.60;;;;;;5039179;28;19928;-59
2024/02/09 12:44:04;;;;;;;;;;;25.80;34.90;;;;;;5055005;28;20012;-60
2024/02/09 12:46:32;;;;;;;;;;;25.80;35.00;;;;;;5044336;28;19924;-60
2024/02/09 12:49:00;;;;;;;;;;;25.80;35.00;;;;;;5058605;28;19939;-59
2024/02/09 12:51:36;;;;;;;;;;;25.80;34.80;;;;;;5054974;28;19936;-59
2024/02/09 12:54:07;;;;;;;;;;;25.70;34.70;;;;;;5046498;28;20019;-59
2024/02/09 12:56:35;;;;;;;;;;;25.70;34.70;;;;;;5060846;28;19931;-60
2024/02/09 12:59:02;;;;;;;;;;;25.70;34.70;;;;;;5061766;28;20294;-59
2024/02/09 13:01:28;;;;;;;;;;;25.70;34.80;;;;;;5058792;28;19932;-58
2024/02/09 13:03:56;;;;;;;;;;;25.70;35.00;;;;;;5063126;28;19932;-60
2024/02/09 13:06:22;;;;;;;;;;;25.70;35.10;;;;;;5066627;28;20373;-60
2024/02/09 13:08:50;;;;;;;;;;;25.70;35.20;;;;;;5067098;28;19925;-60
2024/02/09 13:11:18;;;;;;;;;;;25.70;35.20;;;;;;5063807;28;19924;-62
2024/02/09 13:13:46;;;;;;;;;;;25.70;34.90;;;;;;5065303;28;19924;-60
2024/02/09 13:16:13;;;;;;;;;;;25.70;35.20;;;;;;5066458;28;20012;-60
2024/02/09 13:18:40;;;;;;;;;;;25.70;35.30;;;;;;5062140;28;19928;-58
2024/02/09 13:21:07;;;;;;;;;;;25.70;35.30;;;;;;5069045;28;20164;-61
2024/02/09 13:23:35;;;;;;;;;;;25.70;35.40;;;;;;5064793;28;20071;-59
2024/02/09 13:26:10;;;;;;;;;;;25.70;35.30;;;;;;5070546;28;20373;-60
2024/02/09 13:28:40;;;;;;;;;;;25.70;35.20;;;;;;5053310;28;20025;-59
2024/02/09 13:31:10;;;;;;;;;;;25.70;35.20;;;;;;5064366;28;19977;-59
2024/02/09 13:33:38;;;;;;;;;;;25.70;35.40;;;;;;5071900;28;19932;-59
2024/02/09 13:36:05;;;;;;;;;;;25.60;35.50;;;;;;5071941;28;19932;-59
2024/02/09 13:38:36;;;;;;;;;;;25.60;35.60;;;;;;5066192;28;19928;-57
2024/02/09 13:41:03;;;;;;;;;;;25.60;35.70;;;;;;5071467;28;20031;-59
2024/02/09 13:43:31;;;;;;;;;;;25.70;35.80;;;;;;5072254;28;19935;-57
2024/02/09 13:45:59;;;;;;;;;;;25.60;36.50;;;;;;5070346;28;20015;-57
2024/02/09 13:48:26;;;;;;;;;;;25.60;36.10;;;;;;5072061;28;19929;-57
2024/02/09 13:50:53;;;;;;;;;;;25.60;36.00;;;;;;5074359;28;20019;-57
2024/02/09 13:53:20;;;;;;;;;;;25.60;35.90;;;;;;5073615;28;19928;-58
2024/02/09 13:55:47;;;;;;;;;;;25.60;35.80;;;;;;5073710;28;19928;-57
2024/02/09 13:58:14;;;;;;;;;;;25.60;35.70;;;;;;5073568;28;19951;-57
2024/02/09 14:00:42;;;;;;;;;;;25.60;35.60;;;;;;5073147;28;19928;-57
2024/02/09 14:03:09;;;;;;;;;;;25.60;35.40;;;;;;5073569;28;19932;-57
2024/02/09 14:05:36;;;;;;;;;;;25.60;35.30;;;;;;5072430;28;19928;-56
2024/02/09 14:08:04;;;;;;;;;;;25.50;35.40;;;;;;5073037;28;19924;-55
2024/02/09 14:10:32;;;;;;;;;;;25.60;35.30;;;;;;5072681;28;20006;-57
2024/02/09 14:12:59;;;;;;;;;;;25.60;35.30;;;;;;5072879;28;19964;-57
2024/02/09 14:15:26;;;;;;;;;;;25.50;35.20;;;;;;5074208;28;20324;-57
2024/02/09 14:17:54;;;;;;;;;;;25.60;35.50;;;;;;5074083;28;20332;-57
2024/02/09 14:20:22;;;;;;;;;;;25.50;35.60;;;;;;5073689;28;19932;-57
2024/02/09 14:22:50;;;;;;;;;;;25.50;35.90;;;;;;5073757;28;19931;-57
2024/02/09 14:25:18;;;;;;;;;;;25.50;36.00;;;;;;5073678;28;19924;-57
2024/02/09 14:27:46;;;;;;;;;;;25.50;36.10;;;;;;5073694;28;19979;-57
2024/02/09 14:30:13;;;;;;;;;;;25.50;36.20;;;;;;5073184;28;19931;-57
2024/02/09 14:32:40;;;;;;;;;;;25.40;36.60;;;;;;5073910;28;19928;-57
2024/02/09 14:35:07;;;;;;;;;;;25.40;36.30;;;;;;5073597;28;19932;-57
2024/02/09 14:37:34;;;;;;;;;;;25.40;36.60;;;;;;5073302;28;20019;-57
2024/02/09 14:40:01;;;;;;;;;;;25.40;36.70;;;;;;5073746;28;19933;-57
2024/02/09 14:42:28;;;;;;;;;;;25.30;36.70;;;;;;5073815;28;20029;-58
2024/02/09 14:44:59;;;;;;;;;;;25.30;36.70;;;;;;5073618;28;19936;-57
2024/02/09 14:47:27;;;;;;;;;;;25.30;36.70;;;;;;5073651;28;19925;-57
2024/02/09 14:49:54;;;;;;;;;;;25.20;36.70;;;;;;5070504;28;19930;-58
2024/02/09 14:52:21;;;;;;;;;;;25.10;36.60;;;;;;5053763;28;19928;-57
2024/02/09 14:54:49;;;;;;;;;;;25.20;36.70;;;;;;5053605;28;19928;-58
2024/02/09 14:57:17;;;;;;;;;;;25.10;36.70;;;;;;5058637;28;19925;-63
2024/02/09 14:59:46;;;;;;;;;;;25.10;36.60;;;;;;5061095;28;19987;-67
2024/02/09 15:02:13;;;;;;;;;;;25.10;36.70;;;;;;5067488;28;19994;-59
2024/02/09 15:04:41;;;;;;;;;;;25.10;36.80;;;;;;5070773;28;20586;-58
2024/02/09 15:07:10;;;;;;;;;;;25.00;36.70;;;;;;5071285;28;19924;-58
2024/02/09 15:09:37;;;;;;;;;;;25.00;36.70;;;;;;5071739;28;20015;-57
2024/02/09 15:12:05;;;;;;;;;;;25.00;36.70;;;;;;5073292;28;19924;-57
2024/02/09 15:14:35;;;;;;;;;;;24.90;36.80;;;;;;5072358;28;19925;-56
2024/02/09 15:17:02;;;;;;;;;;;24.90;36.80;;;;;;5055567;28;20370;-57
2024/02/09 15:19:34;;;;;;;;;;;24.90;36.90;;;;;;5072956;28;19924;-57
2024/02/09 15:22:01;;;;;;;;;;;24.90;37.00;;;;;;5067952;28;19929;-57
2024/02/09 15:24:36;;;;;;;;;;;24.80;37.00;;;;;;5061728;28;20023;-57
2024/02/09 15:27:03;;;;;;;;;;;24.80;37.00;;;;;;5066077;28;20254;-58
2024/02/09 15:29:31;;;;;;;;;;;24.80;37.10;;;;;;5064073;28;20340;-57
2024/02/09 15:31:58;;;;;;;;;;;24.80;37.10;;;;;;5049097;28;19924;-57
2024/02/09 15:34:25;;;;;;;;;;;24.70;37.20;;;;;;5057622;28;19932;-57
2024/02/09 15:36:52;;;;;;;;;;;24.70;37.20;;;;;;5062212;28;19936;-57
2024/02/09 15:39:19;;;;;;;;;;;24.70;37.30;;;;;;5073307;28;19971;-58
2024/02/09 15:41:46;;;;;;;;;;;24.70;37.40;;;;;;5073092;28;19970;-57
2024/02/09 15:44:13;;;;;;;;;;;24.70;37.50;;;;;;5073100;28;19931;-57
2024/02/09 15:46:40;;;;;;;;;;;24.60;37.50;;;;;;5072589;28;19924;-57
2024/02/09 15:49:07;;;;;;;;;;;24.60;37.50;;;;;;5072883;28;19974;-57
2024/02/09 15:51:34;;;;;;;;;;;24.60;37.60;;;;;;5072460;28;19924;-58
2024/02/09 15:54:03;;;;;;;;;;;24.60;37.60;;;;;;5073327;28;19928;-57
2024/02/09 15:56:32;;;;;;;;;;;24.50;37.60;;;;;;5072757;28;19924;-58
2024/02/09 15:59:00;;;;;;;;;;;24.50;37.70;;;;;;5072620;28;20015;-57
2024/02/09 16:01:32;;;;;;;;;;;24.50;37.70;;;;;;5072726;28;19974;-57
2024/02/09 16:04:00;;;;;;;;;;;24.50;37.80;;;;;;5055193;28;20288;-57
2024/02/09 16:06:27;;;;;;;;;;;24.50;37.80;;;;;;5072651;28;19975;-58
2024/02/09 16:08:54;;;;;;;;;;;24.50;37.90;;;;;;5072987;28;19928;-57
2024/02/09 16:11:22;;;;;;;;;;;24.40;37.80;;;;;;5072480;28;19955;-57